Terminal Aerodrome Forecast
Issued by NWS Twin Cities, MN

Home | Current Version | Previous Version | Text Only | Print | Product List | Glossary Off
Versions: 1 2 3 4 5 6 7 8 9 10 11 12 13 14 15 16 17 18 19 20 21 22 23 24 25 26 27 28 29 30 31

779
FTUS43 KMPX 201139
TAFMSP
TAF
KMSP 201139Z 2012/2118 15013KT P6SM SCT020 OVC200
     FM201600 16012KT 6SM -SHRA BR VCTS SCT020 OVC035CB
      TEMPO 2016/2019 2SM SHRA BR OVC020
     FM201900 18011KT 5SM -RA BR BKN012 OVC025
     FM210100 22009KT P6SM SCT015 BKN025
     FM210300 28008KT P6SM SCT030=

USA.gov is the U.S. government's official web portal to all federal, state and local government web resources and services.